Time;durP1;ratioP1;P1;durP2;ratioP2;P2;SDS_P1;SDS_P2;PMS_P1;PMS_P2;Temp;Humidity;BMP_temperature;BMP_pressure;BME280_temperature;BME280_humidity;BME280_pressure;Samples;Min_cycle;Max_cycle;Signal;HPM_P1;HPM_P2
2022/06/19 00:01:15;;;;;;;7.13;3.80;;;24.60;57.50;;;;;;7376995;19;20423;-44
2022/06/19 00:03:49;;;;;;;8.60;3.80;;;24.50;57.90;;;;;;7372718;19;20386;-44
2022/06/19 00:06:19;;;;;;;10.03;4.23;;;24.50;58.00;;;;;;7378174;19;20553;-44
2022/06/19 00:08:52;;;;;;;8.73;4.27;;;24.20;58.40;;;;;;7373106;19;20388;-44
2022/06/19 00:11:23;;;;;;;11.10;3.43;;;24.10;58.90;;;;;;7379077;19;20368;-43
2022/06/19 00:13:53;;;;;;;10.00;3.50;;;24.20;58.40;;;;;;7375241;19;20416;-44
2022/06/19 00:16:22;;;;;;;8.47;3.10;;;24.30;58.00;;;;;;7376913;19;20917;-44
2022/06/19 00:18:52;;;;;;;11.60;4.20;;;24.20;58.10;;;;;;7368644;19;21370;-44
2022/06/19 00:21:21;;;;;;;7.03;3.47;;;24.20;58.40;;;;;;7375606;19;20916;-40
2022/06/19 00:23:53;;;;;;;14.37;3.70;;;24.30;58.10;;;;;;7373578;19;20499;-39
2022/06/19 00:26:26;;;;;;;9.00;4.33;;;24.40;57.40;;;;;;7377036;19;21059;-40
2022/06/19 00:28:58;;;;;;;10.73;3.80;;;24.50;56.50;;;;;;7376407;19;20380;-40
2022/06/19 00:31:28;;;;;;;10.90;3.40;;;24.40;57.20;;;;;;7370894;19;20372;-39
2022/06/19 00:33:58;;;;;;;8.10;3.23;;;24.60;56.90;;;;;;7373036;19;20416;-39
2022/06/19 00:36:27;;;;;;;10.27;3.40;;;24.50;57.10;;;;;;7376455;19;20379;-40
2022/06/19 00:39:00;;;;;;;12.00;3.43;;;24.40;57.50;;;;;;7372303;19;20372;-39
2022/06/19 00:41:35;;;;;;;12.27;3.97;;;24.30;57.50;;;;;;7378836;19;20788;-39
2022/06/19 00:44:07;;;;;;;9.80;3.60;;;24.30;57.80;;;;;;7377075;19;20399;-40
2022/06/19 00:46:48;;;;;;;6.77;3.73;;;24.20;58.10;;;;;;7372870;19;20437;-40
2022/06/19 00:49:21;;;;;;;5.60;2.53;;;24.50;57.70;;;;;;7375736;19;20392;-39
2022/06/19 00:51:55;;;;;;;7.17;3.13;;;24.50;57.60;;;;;;7380272;19;20376;-40
2022/06/19 00:54:28;;;;;;;6.27;3.33;;;24.50;58.20;;;;;;7368647;19;20368;-40
2022/06/19 00:56:58;;;;;;;8.73;3.67;;;24.70;57.40;;;;;;7375234;19;20428;-40
2022/06/19 00:59:28;;;;;;;9.93;3.90;;;24.70;57.10;;;;;;7368210;19;20376;-40
2022/06/19 01:01:58;;;;;;;11.60;4.10;;;24.60;57.40;;;;;;7370934;19;20718;-40
2022/06/19 01:04:33;;;;;;;9.73;3.60;;;24.60;57.00;;;;;;7373264;19;20932;-40
2022/06/19 01:07:03;;;;;;;9.23;3.37;;;24.60;57.30;;;;;;7373678;19;20959;-40
2022/06/19 01:09:35;;;;;;;7.33;3.50;;;24.40;57.50;;;;;;7375915;19;20481;-41
2022/06/19 01:12:08;;;;;;;6.27;2.80;;;24.50;57.50;;;;;;7371787;19;20480;-40
2022/06/19 01:14:40;;;;;;;7.60;3.40;;;24.60;57.50;;;;;;7376422;19;20375;-40
2022/06/19 01:17:11;;;;;;;7.43;3.37;;;24.50;58.40;;;;;;7374282;19;20383;-40
2022/06/19 01:19:41;;;;;;;7.53;3.70;;;24.50;58.40;;;;;;7377635;19;20387;-40
2022/06/19 01:22:23;;;;;;;5.40;3.10;;;24.20;58.40;;;;;;7375982;19;20368;-40
2022/06/19 01:25:14;;;;;;;9.73;3.27;;;24.10;58.80;;;;;;7373815;19;20949;-39
2022/06/19 01:30:32;;;;;;;11.20;3.53;;;24.10;58.90;;;;;;7367539;19;21049;-40
2022/06/19 01:33:04;;;;;;;8.33;3.07;;;23.90;59.20;;;;;;7371984;19;20877;-41
2022/06/19 01:35:37;;;;;;;7.80;4.03;;;23.90;58.80;;;;;;7376157;19;20447;-39
2022/06/19 01:38:11;;;;;;;7.73;3.07;;;23.70;58.90;;;;;;7373628;19;20407;-39
2022/06/19 01:40:45;;;;;;;9.33;3.57;;;23.70;59.10;;;;;;7369057;19;20487;-40
2022/06/19 01:43:15;;;;;;;8.37;3.40;;;23.80;58.50;;;;;;7351144;19;21546;-39
2022/06/19 01:45:49;;;;;;;9.60;4.00;;;23.60;58.90;;;;;;7376700;19;20416;-40
2022/06/19 01:48:22;;;;;;;14.00;3.47;;;23.70;59.00;;;;;;7364551;19;20409;-39
2022/06/19 01:50:53;;;;;;;8.87;3.90;;;23.80;58.10;;;;;;7375683;19;20414;-42
2022/06/19 01:53:25;;;;;;;8.03;3.43;;;23.80;58.40;;;;;;7374303;19;20409;-43
2022/06/19 01:55:58;;;;;;;6.07;2.90;;;23.90;58.40;;;;;;7360824;19;20391;-44
2022/06/19 01:58:34;;;;;;;9.10;3.80;;;24.00;58.40;;;;;;7366434;19;20372;-43
2022/06/19 02:01:08;;;;;;;8.37;4.20;;;24.10;57.70;;;;;;7371470;19;20380;-43
2022/06/19 02:03:41;;;;;;;4.27;2.83;;;24.00;58.20;;;;;;7363941;19;20383;-44
2022/06/19 02:06:12;;;;;;;6.17;3.03;;;24.00;57.80;;;;;;7374959;19;21204;-43
2022/06/19 02:08:42;;;;;;;7.93;3.43;;;24.00;58.30;;;;;;7367356;19;20428;-43
2022/06/19 02:11:16;;;;;;;10.03;3.57;;;23.90;58.50;;;;;;7378161;19;20454;-43
2022/06/19 02:13:48;;;;;;;6.53;3.33;;;24.00;58.20;;;;;;7371052;19;20913;-43
2022/06/19 02:16:24;;;;;;;9.43;3.13;;;23.80;58.40;;;;;;7373929;19;20416;-43
2022/06/19 02:18:56;;;;;;;9.77;3.37;;;23.70;58.60;;;;;;7370106;19;20917;-44
2022/06/19 02:21:37;;;;;;;6.13;3.13;;;23.60;58.60;;;;;;7369114;19;20419;-43
2022/06/19 02:24:09;;;;;;;10.40;3.17;;;23.60;58.20;;;;;;7373906;19;20934;-42
2022/06/19 02:26:43;;;;;;;7.70;3.83;;;23.30;58.90;;;;;;7369165;19;20364;-43
2022/06/19 02:29:16;;;;;;;8.67;3.83;;;23.10;59.10;;;;;;7372799;19;20372;-43
2022/06/19 02:31:49;;;;;;;9.67;3.37;;;23.20;58.80;;;;;;7363556;19;20383;-43
2022/06/19 02:34:23;;;;;;;9.10;3.40;;;23.30;58.60;;;;;;7370716;19;20391;-43
2022/06/19 02:36:57;;;;;;;5.87;3.20;;;23.40;58.90;;;;;;7365459;19;20444;-44
2022/06/19 02:39:42;;;;;;;8.60;2.90;;;23.50;58.60;;;;;;7374215;19;20367;-43
2022/06/19 02:42:40;;;;;;;8.43;3.33;;;23.80;58.20;;;;;;7373150;19;20386;-44
2022/06/19 02:45:14;;;;;;;7.53;3.20;;;23.90;58.20;;;;;;7370956;19;20420;-43
2022/06/19 02:47:44;;;;;;;14.10;3.63;;;23.90;57.90;;;;;;7368714;19;20439;-44
2022/06/19 02:50:17;;;;;;;7.90;3.30;;;24.00;57.80;;;;;;7365139;19;21239;-39
2022/06/19 02:52:48;;;;;;;8.53;3.83;;;23.80;57.50;;;;;;7367643;19;20385;-39
2022/06/19 02:55:18;;;;;;;8.27;3.20;;;23.70;57.60;;;;;;7372059;19;20375;-39
2022/06/19 02:57:53;;;;;;;6.73;2.40;;;23.70;58.20;;;;;;7368545;19;20918;-40
2022/06/19 03:00:27;;;;;;;9.20;3.03;;;23.50;58.40;;;;;;7370423;19;20372;-40
2022/06/19 03:03:01;;;;;;;14.50;4.07;;;23.50;58.30;;;;;;7383429;19;20376;-40
2022/06/19 03:05:31;;;;;;;13.10;3.83;;;23.40;58.40;;;;;;7374078;19;20383;-39
2022/06/19 03:08:01;;;;;;;8.60;3.43;;;23.40;58.30;;;;;;7379264;19;20408;-40
2022/06/19 03:10:31;;;;;;;7.47;3.60;;;23.40;58.20;;;;;;7379643;19;20412;-40
2022/06/19 03:13:03;;;;;;;10.80;4.20;;;23.40;57.70;;;;;;7373863;19;20384;-40
2022/06/19 03:15:33;;;;;;;6.40;3.00;;;23.20;57.90;;;;;;7376874;19;20379;-40
2022/06/19 03:18:03;;;;;;;16.30;3.63;;;23.40;58.10;;;;;;7379057;19;20383;-40
2022/06/19 03:20:32;;;;;;;4.63;2.90;;;23.40;57.50;;;;;;7377786;19;20393;-44
2022/06/19 03:23:02;;;;;;;10.73;3.87;;;23.40;57.50;;;;;;7377633;19;20375;-44
2022/06/19 03:25:32;;;;;;;10.60;2.80;;;23.50;57.70;;;;;;7378485;19;20389;-44
2022/06/19 03:28:04;;;;;;;7.17;3.70;;;23.40;57.80;;;;;;7377809;19;21166;-44
2022/06/19 03:30:34;;;;;;;8.70;3.40;;;23.20;58.70;;;;;;7375664;19;20389;-44
2022/06/19 03:33:03;;;;;;;10.03;3.70;;;23.10;59.00;;;;;;7368893;19;20781;-45
2022/06/19 03:35:33;;;;;;;10.50;3.33;;;23.30;58.60;;;;;;7375462;19;20451;-44
2022/06/19 03:38:03;;;;;;;7.73;2.80;;;23.30;58.80;;;;;;7376552;19;20535;-44
2022/06/19 03:40:32;;;;;;;8.40;3.67;;;23.30;59.40;;;;;;7377609;19;20380;-43
2022/06/19 03:43:05;;;;;;;6.77;3.30;;;23.30;59.00;;;;;;7375940;19;20380;-44
2022/06/19 03:45:34;;;;;;;7.70;3.50;;;23.30;58.70;;;;;;7377796;19;20387;-43
2022/06/19 03:48:04;;;;;;;9.80;3.87;;;23.30;59.20;;;;;;7372863;19;20773;-45
2022/06/19 03:50:33;;;;;;;8.00;2.87;;;23.40;58.60;;;;;;7375807;19;20372;-44
2022/06/19 03:53:02;;;;;;;10.13;3.43;;;23.50;58.10;;;;;;7371895;19;20415;-44
2022/06/19 03:55:32;;;;;;;14.40;3.63;;;23.30;58.70;;;;;;7375987;19;20917;-43
2022/06/19 03:58:04;;;;;;;12.07;3.70;;;23.20;58.20;;;;;;7372420;19;20415;-43
2022/06/19 04:00:34;;;;;;;8.93;3.50;;;23.40;58.20;;;;;;7375251;19;20380;-43
2022/06/19 04:03:04;;;;;;;9.43;3.83;;;23.70;57.60;;;;;;7373173;19;20372;-43
2022/06/19 04:05:34;;;;;;;14.83;3.53;;;23.80;57.40;;;;;;7380874;19;20424;-45
2022/06/19 04:08:03;;;;;;;10.67;3.33;;;23.80;57.50;;;;;;7379351;19;20368;-43
2022/06/19 04:10:36;;;;;;;10.37;4.07;;;24.10;57.50;;;;;;7372004;19;20396;-43
2022/06/19 04:13:09;;;;;;;9.50;5.73;;;24.00;57.50;;;;;;7370589;19;20384;-44
2022/06/19 04:15:38;;;;;;;10.63;3.53;;;24.00;57.30;;;;;;7370186;19;20388;-43
2022/06/19 04:18:10;;;;;;;9.20;3.70;;;24.10;57.60;;;;;;7372526;19;20380;-44
2022/06/19 04:20:42;;;;;;;11.73;3.87;;;24.00;57.70;;;;;;7374513;19;20376;-43
2022/06/19 04:23:12;;;;;;;7.17;3.33;;;24.00;57.40;;;;;;7372525;19;20414;-44
2022/06/19 04:25:47;;;;;;;15.43;3.70;;;24.10;57.50;;;;;;7376190;19;20480;-44
2022/06/19 04:28:22;;;;;;;11.50;3.83;;;24.10;58.00;;;;;;7371803;19;20364;-43
2022/06/19 04:30:53;;;;;;;8.40;3.27;;;24.10;58.20;;;;;;7370579;19;20443;-44
2022/06/19 04:33:23;;;;;;;10.63;3.87;;;24.00;58.30;;;;;;7379144;19;20383;-44
2022/06/19 04:35:53;;;;;;;9.83;3.40;;;24.10;58.50;;;;;;7368768;19;20376;-44
2022/06/19 04:38:22;;;;;;;7.47;3.30;;;24.00;58.50;;;;;;7370403;19;20412;-44
2022/06/19 04:40:52;;;;;;;13.07;3.73;;;23.90;59.20;;;;;;7378704;19;20377;-44
2022/06/19 04:43:24;;;;;;;8.37;3.17;;;23.80;59.50;;;;;;7364352;19;20383;-44
2022/06/19 04:45:54;;;;;;;8.33;3.30;;;23.90;59.40;;;;;;7376473;19;20383;-43
2022/06/19 04:48:25;;;;;;;11.90;4.00;;;23.80;59.50;;;;;;7374256;19;20416;-44
2022/06/19 04:50:54;;;;;;;7.43;4.73;;;23.90;59.30;;;;;;7372787;19;20800;-44
2022/06/19 04:53:24;;;;;;;6.80;3.30;;;23.80;59.70;;;;;;7365263;19;20396;-44
2022/06/19 04:55:53;;;;;;;6.20;3.57;;;23.70;60.40;;;;;;7371267;19;20439;-44
2022/06/19 04:58:25;;;;;;;8.30;3.00;;;23.90;60.00;;;;;;7371318;19;20371;-43
2022/06/19 05:00:56;;;;;;;8.93;3.60;;;23.80;60.50;;;;;;7373872;19;20488;-43
2022/06/19 05:03:27;;;;;;;9.20;4.00;;;23.70;61.10;;;;;;7378107;19;20372;-43
2022/06/19 05:05:56;;;;;;;11.20;3.20;;;23.70;60.90;;;;;;7374690;19;20727;-44
2022/06/19 05:08:25;;;;;;;10.50;3.47;;;24.00;60.60;;;;;;7377365;19;20364;-44
2022/06/19 05:10:55;;;;;;;6.23;3.00;;;23.90;61.20;;;;;;7370793;19;20380;-44
2022/06/19 05:13:28;;;;;;;11.37;3.97;;;23.90;61.60;;;;;;7374483;19;21085;-44
2022/06/19 05:16:06;;;;;;;8.87;4.60;;;24.10;61.90;;;;;;7373673;19;20726;-44
2022/06/19 05:18:36;;;;;;;8.27;3.07;;;24.30;61.60;;;;;;7374058;19;20359;-43
2022/06/19 05:21:07;;;;;;;8.33;3.43;;;24.40;61.30;;;;;;7367355;19;20372;-44
2022/06/19 05:23:39;;;;;;;9.03;3.30;;;24.50;61.30;;;;;;7371415;19;20436;-44
2022/06/19 05:26:12;;;;;;;11.00;4.67;;;24.70;61.40;;;;;;7369199;19;20746;-43
2022/06/19 05:28:48;;;;;;;9.00;3.80;;;24.80;60.20;;;;;;7353595;19;20367;-44
2022/06/19 05:31:18;;;;;;;11.23;3.37;;;24.90;60.80;;;;;;7370988;19;20415;-44
2022/06/19 05:33:48;;;;;;;9.47;3.63;;;25.00;59.40;;;;;;7368177;19;20380;-43
2022/06/19 05:36:19;;;;;;;9.90;3.43;;;25.10;60.10;;;;;;7370077;19;20365;-43
2022/06/19 05:38:50;;;;;;;11.47;3.57;;;25.20;59.30;;;;;;7369633;19;20383;-44
2022/06/19 05:41:19;;;;;;;9.63;3.23;;;25.20;58.40;;;;;;7376158;19;20398;-43
2022/06/19 05:43:53;;;;;;;9.90;3.07;;;25.30;58.40;;;;;;7366892;19;20391;-43
2022/06/19 05:46:23;;;;;;;13.10;4.13;;;25.40;57.60;;;;;;7368260;19;20833;-43
2022/06/19 05:48:53;;;;;;;8.70;3.73;;;25.50;57.90;;;;;;7368102;19;20416;-44
2022/06/19 05:51:27;;;;;;;8.23;3.43;;;25.60;57.10;;;;;;7371634;19;20375;-44
2022/06/19 05:53:59;;;;;;;9.97;3.53;;;25.70;57.70;;;;;;7368159;19;20408;-44
2022/06/19 05:56:32;;;;;;;12.83;4.57;;;25.70;57.30;;;;;;7373898;19;20372;-44
2022/06/19 05:59:05;;;;;;;19.50;4.13;;;25.90;56.80;;;;;;7374279;19;20405;-44
2022/06/19 06:01:35;;;;;;;10.50;4.27;;;26.00;55.50;;;;;;7362590;19;20385;-41
2022/06/19 06:04:07;;;;;;;9.53;3.80;;;26.10;55.60;;;;;;7358113;19;20477;-41
2022/06/19 06:06:37;;;;;;;8.73;4.13;;;26.30;56.70;;;;;;7369874;19;20380;-41
2022/06/19 06:09:08;;;;;;;12.50;3.40;;;26.30;56.00;;;;;;7364262;19;21423;-41
2022/06/19 06:11:38;;;;;;;11.07;4.53;;;26.30;55.60;;;;;;7370938;19;20423;-41
2022/06/19 06:14:10;;;;;;;13.43;4.17;;;26.20;55.40;;;;;;7369924;19;20952;-41
2022/06/19 06:16:40;;;;;;;15.13;4.27;;;26.40;54.80;;;;;;7371712;19;20389;-41
2022/06/19 06:19:09;;;;;;;7.20;4.00;;;26.50;55.10;;;;;;7358928;19;20379;-41
2022/06/19 06:21:39;;;;;;;10.67;3.50;;;26.70;54.90;;;;;;7359302;19;20476;-41
2022/06/19 06:24:10;;;;;;;11.73;4.10;;;26.90;53.50;;;;;;7371452;19;20379;-40
2022/06/19 06:26:40;;;;;;;9.20;3.70;;;27.00;52.90;;;;;;7368885;19;20404;-41
2022/06/19 06:29:13;;;;;;;12.77;3.70;;;27.20;52.00;;;;;;7367435;19;20364;-41
2022/06/19 06:31:45;;;;;;;6.60;3.20;;;27.40;50.70;;;;;;7358212;19;20424;-45
2022/06/19 06:34:16;;;;;;;10.17;3.90;;;27.50;50.40;;;;;;7368077;19;20863;-43
2022/06/19 06:36:48;;;;;;;14.37;4.00;;;27.70;51.40;;;;;;7367164;19;20420;-44
2022/06/19 06:39:18;;;;;;;10.47;4.13;;;27.80;51.00;;;;;;7341988;19;21036;-45
2022/06/19 06:41:47;;;;;;;10.67;4.10;;;27.90;50.50;;;;;;7363847;19;20383;-45
2022/06/19 06:44:19;;;;;;;17.17;4.20;;;28.00;50.80;;;;;;7354688;19;20376;-45
2022/06/19 06:46:49;;;;;;;11.03;3.70;;;28.20;51.00;;;;;;7362182;19;20427;-44
2022/06/19 06:49:19;;;;;;;8.30;3.67;;;28.30;50.70;;;;;;7374485;19;20372;-44
2022/06/19 06:51:48;;;;;;;8.70;4.60;;;28.50;50.20;;;;;;7371280;19;20802;-45
2022/06/19 06:54:18;;;;;;;11.07;3.93;;;28.70;49.40;;;;;;7354487;19;20618;-45
2022/06/19 06:56:49;;;;;;;14.60;4.07;;;28.90;49.80;;;;;;7369899;19;20376;-47
2022/06/19 06:59:21;;;;;;;11.43;4.40;;;29.00;49.40;;;;;;7373604;19;20368;-45
2022/06/19 07:01:50;;;;;;;12.70;5.10;;;29.00;48.10;;;;;;7362350;19;20360;-44
2022/06/19 07:04:20;;;;;;;10.00;3.83;;;29.00;48.80;;;;;;7367928;19;20387;-44
2022/06/19 07:06:49;;;;;;;12.53;3.87;;;29.00;49.10;;;;;;7379712;19;20413;-45
2022/06/19 07:09:18;;;;;;;9.07;4.23;;;28.90;49.30;;;;;;7372657;19;20805;-45
2022/06/19 07:11:49;;;;;;;11.17;4.50;;;28.90;49.00;;;;;;7368200;19;20864;-44
2022/06/19 07:14:21;;;;;;;11.50;4.23;;;28.90;50.60;;;;;;7365539;19;20952;-45
2022/06/19 07:16:51;;;;;;;18.00;4.70;;;28.70;51.40;;;;;;7366592;19;20379;-44
2022/06/19 07:19:21;;;;;;;12.40;4.80;;;28.60;51.70;;;;;;7373131;19;20445;-44
2022/06/19 07:21:55;;;;;;;12.03;5.37;;;28.50;52.00;;;;;;7374224;19;20368;-45
2022/06/19 07:24:25;;;;;;;13.03;5.10;;;28.50;52.40;;;;;;7368164;19;20423;-46
2022/06/19 07:26:55;;;;;;;12.13;4.40;;;28.60;52.10;;;;;;7370960;19;20426;-46
2022/06/19 07:29:27;;;;;;;11.00;4.20;;;28.70;52.60;;;;;;7353102;19;21438;-46
2022/06/19 07:31:57;;;;;;;10.90;4.87;;;28.80;53.20;;;;;;7368771;19;20372;-42
2022/06/19 07:34:26;;;;;;;7.33;4.83;;;29.00;53.20;;;;;;7363492;19;20372;-41
2022/06/19 07:36:56;;;;;;;9.40;4.70;;;29.20;52.70;;;;;;7368466;19;20373;-42
2022/06/19 07:39:29;;;;;;;12.50;4.80;;;29.30;52.30;;;;;;7371304;19;20408;-42
2022/06/19 07:42:04;;;;;;;9.67;4.93;;;29.40;51.90;;;;;;7371202;19;20489;-40
2022/06/19 07:44:36;;;;;;;15.50;5.23;;;29.60;52.00;;;;;;7362403;19;20404;-41
2022/06/19 07:52:30;;;;;;;9.33;6.20;;;30.30;48.00;;;;;;7378491;19;20372;-42
2022/06/19 07:55:00;;;;;;;10.63;5.37;;;30.40;47.80;;;;;;7361397;19;20368;-39
2022/06/19 07:57:32;;;;;;;13.00;6.17;;;30.50;48.30;;;;;;7346590;19;20467;-40
2022/06/19 08:00:04;;;;;;;10.40;5.80;;;30.50;48.10;;;;;;7370064;19;20372;-40
2022/06/19 08:02:34;;;;;;;15.57;5.50;;;30.50;49.50;;;;;;7370510;19;20386;-41
2022/06/19 08:05:05;;;;;;;9.53;4.73;;;30.60;49.30;;;;;;7377523;19;20424;-41
2022/06/19 08:07:35;;;;;;;9.63;6.03;;;30.50;50.30;;;;;;7371509;19;20417;-41
2022/06/19 08:10:04;;;;;;;8.73;5.40;;;30.70;49.10;;;;;;7374421;19;20392;-44
2022/06/19 08:12:34;;;;;;;12.73;6.00;;;30.90;48.40;;;;;;7370580;19;20404;-45
2022/06/19 08:15:07;;;;;;;7.73;6.53;;;31.00;48.40;;;;;;7372682;19;20372;-45
2022/06/19 08:17:37;;;;;;;7.37;5.30;;;31.20;47.60;;;;;;7373139;19;20412;-44
2022/06/19 08:20:12;;;;;;;10.80;6.60;;;31.30;47.10;;;;;;7376325;19;20945;-45
2022/06/19 08:22:41;;;;;;;17.00;7.77;;;31.50;46.80;;;;;;7377562;19;20395;-45
2022/06/19 08:25:12;;;;;;;11.03;7.53;;;31.50;47.00;;;;;;7372037;19;21053;-45
2022/06/19 08:27:47;;;;;;;10.13;6.60;;;31.70;46.30;;;;;;7377610;19;21606;-45
2022/06/19 08:30:22;;;;;;;11.00;7.23;;;31.90;45.70;;;;;;7365671;19;21024;-45
2022/06/19 08:32:51;;;;;;;12.10;7.77;;;32.10;45.00;;;;;;7375131;19;20372;-45
2022/06/19 08:35:21;;;;;;;18.27;8.90;;;32.20;44.00;;;;;;7375187;19;20373;-44
2022/06/19 08:37:54;;;;;;;12.30;8.93;;;32.30;43.40;;;;;;7377382;19;20380;-45
2022/06/19 08:40:37;;;;;;;11.13;8.30;;;32.50;42.90;;;;;;7365133;19;20412;-40
2022/06/19 08:43:18;;;;;;;11.23;7.93;;;32.60;42.90;;;;;;7366438;19;20364;-40
2022/06/19 08:46:09;;;;;;;11.47;8.43;;;32.80;42.00;;;;;;7366221;19;20743;-40
2022/06/19 08:48:59;;;;;;;15.77;9.60;;;32.90;41.50;;;;;;7369585;19;20416;-40
2022/06/19 08:51:38;;;;;;;13.43;8.23;;;33.00;41.20;;;;;;7376017;19;20749;-40
2022/06/19 08:54:22;;;;;;;14.40;8.43;;;33.10;40.30;;;;;;7371973;19;20407;-40
2022/06/19 08:57:02;;;;;;;11.43;8.30;;;33.20;40.00;;;;;;7371520;19;20419;-40
2022/06/19 08:59:41;;;;;;;10.57;8.73;;;33.40;39.60;;;;;;7373681;19;20380;-40
2022/06/19 09:02:25;;;;;;;11.57;8.47;;;33.50;37.90;;;;;;7372450;19;20404;-40
2022/06/19 09:07:57;;;;;;;11.73;7.90;;;33.70;35.60;;;;;;7374707;19;20384;-41
2022/06/19 09:10:38;;;;;;;13.67;8.37;;;33.80;35.80;;;;;;7373202;19;20423;-42
2022/06/19 09:13:26;;;;;;;12.77;7.73;;;33.90;34.90;;;;;;7376447;19;20376;-41
2022/06/19 09:16:02;;;;;;;11.03;8.10;;;34.00;34.40;;;;;;7372423;19;20938;-40
2022/06/19 09:18:42;;;;;;;13.13;7.70;;;34.10;34.50;;;;;;7369926;19;20376;-40
2022/06/19 09:21:14;;;;;;;10.30;7.73;;;34.30;34.30;;;;;;7371528;19;20841;-41
2022/06/19 09:24:12;;;;;;;13.60;6.70;;;34.40;32.70;;;;;;7367608;19;20388;-40
2022/06/19 09:26:47;;;;;;;10.40;7.17;;;34.50;32.30;;;;;;7371376;19;20376;-40
2022/06/19 09:29:21;;;;;;;14.17;8.67;;;34.50;32.40;;;;;;7373115;19;20438;-41
2022/06/19 09:31:56;;;;;;;16.53;7.20;;;34.60;31.90;;;;;;7372313;19;20372;-41
2022/06/19 09:34:38;;;;;;;8.93;6.67;;;34.70;32.30;;;;;;7360691;19;20372;-40
2022/06/19 09:37:17;;;;;;;11.93;6.10;;;34.90;31.60;;;;;;7367319;19;20392;-40
2022/06/19 09:39:53;;;;;;;8.37;6.40;;;34.90;31.30;;;;;;7366075;19;20412;-43
2022/06/19 09:42:27;;;;;;;14.77;6.90;;;35.00;29.90;;;;;;7368071;19;20428;-44
2022/06/19 09:45:02;;;;;;;12.50;7.20;;;35.00;30.00;;;;;;7368210;19;20921;-44
2022/06/19 09:47:41;;;;;;;9.87;7.03;;;35.10;30.40;;;;;;7366188;19;20822;-43
2022/06/19 09:50:22;;;;;;;12.63;5.80;;;35.20;30.40;;;;;;7363105;19;20404;-44
2022/06/19 09:52:58;;;;;;;9.40;5.33;;;35.40;30.30;;;;;;7371995;19;20427;-44
2022/06/19 09:55:34;;;;;;;6.57;5.63;;;35.50;29.00;;;;;;7363855;19;20404;-44
2022/06/19 09:58:12;;;;;;;10.03;5.90;;;35.50;28.70;;;;;;7366680;19;21009;-44
2022/06/19 10:00:44;;;;;;;11.80;6.10;;;35.70;28.80;;;;;;7357532;19;20387;-44
2022/06/19 10:03:19;;;;;;;10.23;5.87;;;35.80;28.70;;;;;;7365477;19;20384;-44
2022/06/19 10:05:55;;;;;;;12.80;6.90;;;35.90;28.80;;;;;;7362862;19;20965;-43
2022/06/19 10:08:29;;;;;;;12.63;6.30;;;35.90;28.70;;;;;;7372155;19;21008;-42
2022/06/19 10:11:03;;;;;;;10.50;6.90;;;35.90;28.50;;;;;;7367714;19;20384;-43
2022/06/19 10:13:38;;;;;;;12.73;6.97;;;36.10;28.90;;;;;;7361592;19;20783;-44
2022/06/19 10:16:21;;;;;;;14.40;6.90;;;36.30;28.90;;;;;;7368043;19;21028;-44
2022/06/19 10:18:54;;;;;;;11.97;6.70;;;36.40;28.60;;;;;;7367981;19;20423;-43
2022/06/19 10:24:28;;;;;;;8.77;6.57;;;36.50;28.50;;;;;;7373685;19;20865;-43
2022/06/19 10:27:07;;;;;;;12.63;6.77;;;36.50;28.60;;;;;;7366059;19;21014;-44
2022/06/19 10:29:58;;;;;;;8.80;6.03;;;36.60;28.40;;;;;;7367917;19;20388;-44
2022/06/19 10:32:45;;;;;;;12.13;6.63;;;36.70;28.40;;;;;;7369349;19;20433;-44
2022/06/19 10:35:20;;;;;;;12.00;5.90;;;36.70;28.20;;;;;;7373816;19;20499;-43
2022/06/19 10:38:09;;;;;;;10.73;6.37;;;36.80;28.40;;;;;;7372213;19;20375;-44
2022/06/19 10:40:46;;;;;;;10.93;6.90;;;37.00;28.00;;;;;;7364393;19;20411;-43
2022/06/19 10:43:33;;;;;;;12.13;7.23;;;37.10;27.80;;;;;;7368765;19;20414;-44
2022/06/19 10:46:08;;;;;;;10.63;7.03;;;37.00;27.40;;;;;;7367839;19;20915;-44
2022/06/19 10:48:48;;;;;;;12.23;6.30;;;37.00;27.80;;;;;;7347241;19;20436;-44
2022/06/19 10:51:32;;;;;;;8.83;6.63;;;37.00;27.70;;;;;;7366267;19;20409;-43
2022/06/19 10:54:23;;;;;;;10.93;6.53;;;37.10;27.70;;;;;;7363030;19;21273;-45
2022/06/19 10:57:00;;;;;;;11.40;5.90;;;37.20;27.60;;;;;;7358928;19;20831;-44
2022/06/19 10:59:30;;;;;;;11.10;6.17;;;37.40;27.50;;;;;;7371905;19;20969;-44
2022/06/19 11:05:18;;;;;;;13.60;5.83;;;37.70;27.00;;;;;;7372390;19;21635;-43
2022/06/19 11:07:52;;;;;;;7.93;6.00;;;37.70;26.90;;;;;;7374728;19;20380;-43
2022/06/19 11:10:32;;;;;;;12.13;6.20;;;37.70;26.70;;;;;;7373888;19;20391;-46
2022/06/19 11:13:05;;;;;;;7.30;5.73;;;37.70;26.60;;;;;;7371958;19;20392;-43
2022/06/19 11:15:40;;;;;;;8.40;5.27;;;37.80;26.70;;;;;;7373053;19;20370;-44
2022/06/19 11:18:15;;;;;;;14.37;6.23;;;37.80;27.20;;;;;;7373602;19;20664;-43
2022/06/19 11:20:59;;;;;;;11.40;5.47;;;37.80;26.70;;;;;;7374001;19;20379;-42
2022/06/19 11:23:34;;;;;;;7.60;6.00;;;37.90;26.40;;;;;;7378439;19;20996;-44
2022/06/19 11:26:16;;;;;;;8.90;6.37;;;37.90;26.40;;;;;;7379334;19;20384;-43
2022/06/19 11:28:50;;;;;;;10.77;5.40;;;38.00;26.40;;;;;;7379472;19;20921;-43
2022/06/19 11:31:22;;;;;;;8.67;5.30;;;37.90;26.70;;;;;;7379930;19;20731;-44
2022/06/19 11:33:56;;;;;;;8.73;5.67;;;38.00;26.50;;;;;;7381230;19;20391;-43
2022/06/19 11:36:33;;;;;;;11.23;6.27;;;38.10;26.30;;;;;;7381450;19;20429;-43
2022/06/19 11:39:24;;;;;;;12.83;6.40;;;38.20;26.70;;;;;;7381452;19;20396;-43
2022/06/19 11:41:56;;;;;;;11.70;6.10;;;38.20;26.40;;;;;;7379788;19;20376;-44
2022/06/19 11:44:28;;;;;;;6.47;5.23;;;38.40;26.00;;;;;;7381580;19;20468;-43
2022/06/19 11:46:58;;;;;;;9.97;5.70;;;38.30;26.00;;;;;;7376900;19;20466;-42
2022/06/19 11:49:32;;;;;;;9.17;6.17;;;38.50;26.10;;;;;;7380793;19;20882;-45
2022/06/19 11:52:04;;;;;;;11.13;5.63;;;38.50;25.50;;;;;;7380668;19;20401;-43
2022/06/19 11:54:38;;;;;;;11.23;5.40;;;38.40;25.80;;;;;;7380612;19;21052;-43
2022/06/19 11:57:26;;;;;;;9.10;5.47;;;38.30;26.00;;;;;;7381356;19;20425;-43
2022/06/19 12:00:01;;;;;;;8.20;5.97;;;38.30;26.20;;;;;;7378833;19;21028;-43
2022/06/19 12:02:38;;;;;;;10.13;5.60;;;38.20;26.40;;;;;;7381383;19;20446;-44
2022/06/19 12:05:10;;;;;;;7.60;5.57;;;38.20;26.20;;;;;;7381377;19;20805;-43
2022/06/19 12:07:44;;;;;;;9.63;6.57;;;38.30;26.30;;;;;;7379165;19;20925;-44
2022/06/19 12:10:23;;;;;;;12.17;5.60;;;38.30;26.30;;;;;;7378747;19;20376;-43
2022/06/19 12:13:00;;;;;;;9.10;5.23;;;38.40;26.40;;;;;;7377483;19;20402;-43
2022/06/19 12:15:32;;;;;;;8.40;6.33;;;38.30;26.30;;;;;;7379379;19;20379;-44
2022/06/19 12:18:04;;;;;;;17.23;6.17;;;38.30;26.20;;;;;;7381339;19;20376;-44
2022/06/19 12:20:37;;;;;;;10.33;5.20;;;38.40;26.40;;;;;;7380515;19;20904;-45
2022/06/19 12:23:13;;;;;;;14.00;5.30;;;38.50;26.20;;;;;;7379321;19;20376;-43
2022/06/19 12:25:48;;;;;;;9.03;5.83;;;38.40;26.40;;;;;;7378533;19;20408;-44
2022/06/19 12:28:32;;;;;;;10.60;6.17;;;38.50;26.50;;;;;;7377251;19;20933;-44
2022/06/19 12:31:05;;;;;;;11.13;6.40;;;38.50;26.10;;;;;;7379398;19;21414;-44
2022/06/19 12:33:38;;;;;;;11.87;6.03;;;38.40;26.10;;;;;;7376720;19;20528;-44
2022/06/19 12:36:08;;;;;;;11.07;6.30;;;38.40;26.10;;;;;;7378344;19;20368;-44
2022/06/19 12:38:44;;;;;;;9.20;5.00;;;38.30;26.00;;;;;;7380338;19;20380;-44
2022/06/19 12:41:31;;;;;;;10.50;6.00;;;38.20;26.10;;;;;;7377815;19;20380;-43
2022/06/19 12:44:15;;;;;;;10.77;6.00;;;38.30;26.20;;;;;;7378596;19;20372;-44
2022/06/19 12:46:51;;;;;;;9.80;6.33;;;38.20;26.10;;;;;;7378772;19;20415;-44
2022/06/19 12:49:44;;;;;;;7.93;5.33;;;38.10;25.90;;;;;;7378076;19;20380;-43
2022/06/19 12:52:22;;;;;;;9.53;5.60;;;38.20;25.90;;;;;;7378273;19;20429;-41
2022/06/19 12:55:08;;;;;;;8.20;5.40;;;38.20;26.00;;;;;;7376067;19;20461;-41
2022/06/19 12:58:00;;;;;;;11.03;6.30;;;38.20;26.80;;;;;;7377397;19;20418;-41
2022/06/19 13:00:41;;;;;;;8.07;6.27;;;38.20;26.40;;;;;;7376436;19;20508;-41
2022/06/19 13:03:37;;;;;;;9.60;5.43;;;38.10;26.30;;;;;;7377854;19;20820;-41
2022/06/19 13:06:34;;;;;;;10.50;5.97;;;37.90;26.00;;;;;;7378568;19;20416;-41
2022/06/19 13:09:20;;;;;;;10.43;5.50;;;37.70;26.70;;;;;;7372653;19;20734;-41
2022/06/19 13:12:03;;;;;;;13.23;5.90;;;37.40;26.60;;;;;;7369193;19;20384;-41
2022/06/19 13:14:53;;;;;;;8.47;5.30;;;37.10;26.90;;;;;;7372215;19;20731;-41
2022/06/19 13:17:33;;;;;;;9.53;5.40;;;36.90;27.10;;;;;;7352382;19;20511;-41
2022/06/19 13:20:16;;;;;;;8.00;5.60;;;36.80;27.30;;;;;;7373612;19;20403;-41
2022/06/19 13:22:59;;;;;;;9.73;5.73;;;36.70;27.50;;;;;;7373549;19;20383;-41
2022/06/19 13:25:34;;;;;;;15.60;6.07;;;36.50;27.60;;;;;;7368109;19;20400;-41
2022/06/19 13:28:22;;;;;;;12.83;5.73;;;36.40;27.30;;;;;;7371777;19;20420;-41
2022/06/19 13:30:57;;;;;;;12.20;6.20;;;36.30;27.50;;;;;;7372183;19;20943;-45
2022/06/19 13:33:50;;;;;;;10.37;6.10;;;36.20;27.70;;;;;;7369475;19;20982;-43